sensor_id;sensor_type;location;lat;lon;timestamp;temperature;humidity
35559;DHT22;21661;50.794;-1.066;2024-03-07T00:02:17;7.30;99.90
35559;DHT22;21661;50.794;-1.066;2024-03-07T00:04:44;7.30;99.90
35559;DHT22;21661;50.794;-1.066;2024-03-07T00:07:09;7.30;99.90
35559;DHT22;21661;50.794;-1.066;2024-03-07T00:09:35;7.30;99.90
35559;DHT22;21661;50.794;-1.066;2024-03-07T00:12:01;7.30;99.90
35559;DHT22;21661;50.794;-1.066;2024-03-07T00:14:27;7.20;99.90
35559;DHT22;21661;50.794;-1.066;2024-03-07T00:16:56;7.20;99.90
35559;DHT22;21661;50.794;-1.066;2024-03-07T00:19:25;7.20;99.90
35559;DHT22;21661;50.794;-1.066;2024-03-07T00:21:57;7.20;99.90
35559;DHT22;21661;50.794;-1.066;2024-03-07T00:24:23;7.20;99.90
35559;DHT22;21661;50.794;-1.066;2024-03-07T00:26:50;7.20;99.90
35559;DHT22;21661;50.794;-1.066;2024-03-07T00:29:17;7.20;99.90
35559;DHT22;21661;50.794;-1.066;2024-03-07T00:31:46;7.10;99.90
35559;DHT22;21661;50.794;-1.066;2024-03-07T00:34:15;7.20;99.90
35559;DHT22;21661;50.794;-1.066;2024-03-07T00:36:45;7.10;99.90
35559;DHT22;21661;50.794;-1.066;2024-03-07T00:39:11;7.10;99.90
35559;DHT22;21661;50.794;-1.066;2024-03-07T00:41:41;7.10;99.90
35559;DHT22;21661;50.794;-1.066;2024-03-07T00:44:07;7.10;99.90
35559;DHT22;21661;50.794;-1.066;2024-03-07T00:46:37;7.10;99.90
35559;DHT22;21661;50.794;-1.066;2024-03-07T00:49:04;7.00;99.90
35559;DHT22;21661;50.794;-1.066;2024-03-07T00:51:30;7.10;99.90
35559;DHT22;21661;50.794;-1.066;2024-03-07T00:53:56;7.10;99.90
35559;DHT22;21661;50.794;-1.066;2024-03-07T00:56:21;7.00;99.90
35559;DHT22;21661;50.794;-1.066;2024-03-07T00:58:53;7.00;99.90
35559;DHT22;21661;50.794;-1.066;2024-03-07T01:01:19;7.00;99.90
35559;DHT22;21661;50.794;-1.066;2024-03-07T01:03:45;7.00;99.90
35559;DHT22;21661;50.794;-1.066;2024-03-07T01:06:11;7.00;99.90
35559;DHT22;21661;50.794;-1.066;2024-03-07T01:08:37;6.90;99.90
35559;DHT22;21661;50.794;-1.066;2024-03-07T01:11:06;7.00;99.90
35559;DHT22;21661;50.794;-1.066;2024-03-07T01:13:41;7.00;99.90
35559;DHT22;21661;50.794;-1.066;2024-03-07T01:16:07;6.90;99.90
35559;DHT22;21661;50.794;-1.066;2024-03-07T01:18:33;6.90;99.90
35559;DHT22;21661;50.794;-1.066;2024-03-07T01:21:03;6.90;99.90
35559;DHT22;21661;50.794;-1.066;2024-03-07T01:23:29;6.90;99.90
35559;DHT22;21661;50.794;-1.066;2024-03-07T01:25:58;6.90;99.90
35559;DHT22;21661;50.794;-1.066;2024-03-07T01:28:28;6.80;99.90
35559;DHT22;21661;50.794;-1.066;2024-03-07T01:30:56;6.80;99.90
35559;DHT22;21661;50.794;-1.066;2024-03-07T01:33:22;6.80;99.90
35559;DHT22;21661;50.794;-1.066;2024-03-07T01:35:48;6.90;99.90
35559;DHT22;21661;50.794;-1.066;2024-03-07T01:38:15;6.80;99.90
35559;DHT22;21661;50.794;-1.066;2024-03-07T01:40:44;6.80;99.90
35559;DHT22;21661;50.794;-1.066;2024-03-07T01:43:10;6.80;99.90
35559;DHT22;21661;50.794;-1.066;2024-03-07T01:45:37;6.80;99.90
35559;DHT22;21661;50.794;-1.066;2024-03-07T01:48:08;6.80;99.90
35559;DHT22;21661;50.794;-1.066;2024-03-07T01:50:35;6.80;99.90
35559;DHT22;21661;50.794;-1.066;2024-03-07T01:53:04;6.80;99.90
35559;DHT22;21661;50.794;-1.066;2024-03-07T01:55:30;6.80;99.90
35559;DHT22;21661;50.794;-1.066;2024-03-07T01:57:57;6.80;99.90
35559;DHT22;21661;50.794;-1.066;2024-03-07T02:00:24;6.80;99.90
35559;DHT22;21661;50.794;-1.066;2024-03-07T02:02:49;6.70;99.90
35559;DHT22;21661;50.794;-1.066;2024-03-07T02:05:15;6.70;99.90
35559;DHT22;21661;50.794;-1.066;2024-03-07T02:07:41;6.70;99.90
35559;DHT22;21661;50.794;-1.066;2024-03-07T02:10:08;6.70;99.90
35559;DHT22;21661;50.794;-1.066;2024-03-07T02:12:34;6.70;99.90
35559;DHT22;21661;50.794;-1.066;2024-03-07T02:15:00;6.70;99.90
35559;DHT22;21661;50.794;-1.066;2024-03-07T02:17:26;6.70;99.90
35559;DHT22;21661;50.794;-1.066;2024-03-07T02:19:53;6.70;99.90
35559;DHT22;21661;50.794;-1.066;2024-03-07T02:22:19;6.70;99.90
35559;DHT22;21661;50.794;-1.066;2024-03-07T02:24:47;6.70;99.90
35559;DHT22;21661;50.794;-1.066;2024-03-07T02:27:13;6.70;99.90
35559;DHT22;21661;50.794;-1.066;2024-03-07T02:29:42;6.70;99.90
35559;DHT22;21661;50.794;-1.066;2024-03-07T02:32:08;6.60;99.90
35559;DHT22;21661;50.794;-1.066;2024-03-07T02:34:35;6.60;99.90
35559;DHT22;21661;50.794;-1.066;2024-03-07T02:37:01;6.60;99.90
35559;DHT22;21661;50.794;-1.066;2024-03-07T02:39:27;6.70;99.90
35559;DHT22;21661;50.794;-1.066;2024-03-07T02:41:52;6.70;99.90
35559;DHT22;21661;50.794;-1.066;2024-03-07T02:44:18;6.60;99.90
35559;DHT22;21661;50.794;-1.066;2024-03-07T02:46:45;6.60;99.90
35559;DHT22;21661;50.794;-1.066;2024-03-07T02:49:10;6.60;99.90
35559;DHT22;21661;50.794;-1.066;2024-03-07T02:51:36;6.60;99.90
35559;DHT22;21661;50.794;-1.066;2024-03-07T02:54:02;6.60;99.90
35559;DHT22;21661;50.794;-1.066;2024-03-07T02:56:31;6.50;99.90
35559;DHT22;21661;50.794;-1.066;2024-03-07T02:58:57;6.60;99.90
35559;DHT22;21661;50.794;-1.066;2024-03-07T03:01:22;6.50;99.90
35559;DHT22;21661;50.794;-1.066;2024-03-07T03:03:49;6.60;99.90
35559;DHT22;21661;50.794;-1.066;2024-03-07T03:06:15;6.50;99.90
35559;DHT22;21661;50.794;-1.066;2024-03-07T03:08:41;6.60;99.90
35559;DHT22;21661;50.794;-1.066;2024-03-07T03:11:06;6.60;99.90
35559;DHT22;21661;50.794;-1.066;2024-03-07T03:13:37;6.60;99.90
35559;DHT22;21661;50.794;-1.066;2024-03-07T03:16:04;6.60;99.90
35559;DHT22;21661;50.794;-1.066;2024-03-07T03:18:32;6.60;99.90
35559;DHT22;21661;50.794;-1.066;2024-03-07T03:20:59;6.60;99.90
35559;DHT22;21661;50.794;-1.066;2024-03-07T03:23:25;6.60;99.90
35559;DHT22;21661;50.794;-1.066;2024-03-07T03:25:51;6.60;99.90
35559;DHT22;21661;50.794;-1.066;2024-03-07T03:28:17;6.60;99.90
35559;DHT22;21661;50.794;-1.066;2024-03-07T03:30:44;6.60;99.90
35559;DHT22;21661;50.794;-1.066;2024-03-07T03:33:10;6.70;99.90
35559;DHT22;21661;50.794;-1.066;2024-03-07T03:35:37;6.60;99.90
35559;DHT22;21661;50.794;-1.066;2024-03-07T03:38:03;6.60;99.90
35559;DHT22;21661;50.794;-1.066;2024-03-07T03:40:29;6.60;99.90
35559;DHT22;21661;50.794;-1.066;2024-03-07T03:42:55;6.60;99.90
35559;DHT22;21661;50.794;-1.066;2024-03-07T03:45:20;6.50;99.90
35559;DHT22;21661;50.794;-1.066;2024-03-07T03:47:46;6.50;99.90
35559;DHT22;21661;50.794;-1.066;2024-03-07T03:50:13;6.50;99.90
35559;DHT22;21661;50.794;-1.066;2024-03-07T03:52:40;6.50;99.90
35559;DHT22;21661;50.794;-1.066;2024-03-07T03:55:06;6.50;99.90
35559;DHT22;21661;50.794;-1.066;2024-03-07T03:57:33;6.50;99.90
35559;DHT22;21661;50.794;-1.066;2024-03-07T04:00:00;6.50;99.90
35559;DHT22;21661;50.794;-1.066;2024-03-07T04:02:26;6.50;99.90
35559;DHT22;21661;50.794;-1.066;2024-03-07T04:04:52;6.50;99.90
35559;DHT22;21661;50.794;-1.066;2024-03-07T04:07:21;6.60;99.90
35559;DHT22;21661;50.794;-1.066;2024-03-07T04:09:46;6.60;99.90
35559;DHT22;21661;50.794;-1.066;2024-03-07T04:12:13;6.60;99.90
35559;DHT22;21661;50.794;-1.066;2024-03-07T04:14:42;6.60;99.90
35559;DHT22;21661;50.794;-1.066;2024-03-07T04:17:09;6.60;99.90
35559;DHT22;21661;50.794;-1.066;2024-03-07T04:19:38;6.60;99.90
35559;DHT22;21661;50.794;-1.066;2024-03-07T04:22:04;6.60;99.90
35559;DHT22;21661;50.794;-1.066;2024-03-07T04:24:31;6.60;99.90
35559;DHT22;21661;50.794;-1.066;2024-03-07T04:27:01;6.60;99.90
35559;DHT22;21661;50.794;-1.066;2024-03-07T04:29:31;6.50;99.90
35559;DHT22;21661;50.794;-1.066;2024-03-07T04:31:58;6.60;99.90
35559;DHT22;21661;50.794;-1.066;2024-03-07T04:34:24;6.70;99.90
35559;DHT22;21661;50.794;-1.066;2024-03-07T04:36:49;6.50;99.90
35559;DHT22;21661;50.794;-1.066;2024-03-07T04:39:15;6.50;99.90
35559;DHT22;21661;50.794;-1.066;2024-03-07T04:41:54;6.60;99.90
35559;DHT22;21661;50.794;-1.066;2024-03-07T04:44:20;6.50;99.90
35559;DHT22;21661;50.794;-1.066;2024-03-07T04:46:49;6.50;99.90
35559;DHT22;21661;50.794;-1.066;2024-03-07T04:49:23;6.50;99.90
35559;DHT22;21661;50.794;-1.066;2024-03-07T04:51:53;6.50;99.90
35559;DHT22;21661;50.794;-1.066;2024-03-07T04:54:20;6.50;99.90
35559;DHT22;21661;50.794;-1.066;2024-03-07T04:56:46;6.40;99.90
35559;DHT22;21661;50.794;-1.066;2024-03-07T04:59:13;6.40;99.90
35559;DHT22;21661;50.794;-1.066;2024-03-07T05:01:39;6.40;99.90
35559;DHT22;21661;50.794;-1.066;2024-03-07T05:04:06;6.40;99.90
35559;DHT22;21661;50.794;-1.066;2024-03-07T05:06:32;6.40;99.90
35559;DHT22;21661;50.794;-1.066;2024-03-07T05:09:02;6.40;99.90
35559;DHT22;21661;50.794;-1.066;2024-03-07T05:11:30;6.40;99.90
35559;DHT22;21661;50.794;-1.066;2024-03-07T05:13:56;6.30;99.90
35559;DHT22;21661;50.794;-1.066;2024-03-07T05:16:30;6.30;99.90
35559;DHT22;21661;50.794;-1.066;2024-03-07T05:18:56;6.30;99.90
35559;DHT22;21661;50.794;-1.066;2024-03-07T05:21:26;6.30;99.90
35559;DHT22;21661;50.794;-1.066;2024-03-07T05:23:57;6.30;99.90
35559;DHT22;21661;50.794;-1.066;2024-03-07T05:26:24;6.30;99.90
35559;DHT22;21661;50.794;-1.066;2024-03-07T05:28:49;6.30;99.90
35559;DHT22;21661;50.794;-1.066;2024-03-07T05:31:15;6.30;99.90
35559;DHT22;21661;50.794;-1.066;2024-03-07T05:33:43;6.30;99.90
35559;DHT22;21661;50.794;-1.066;2024-03-07T05:36:09;6.30;99.90
35559;DHT22;21661;50.794;-1.066;2024-03-07T05:38:41;6.40;99.90
35559;DHT22;21661;50.794;-1.066;2024-03-07T05:41:11;6.30;99.90
35559;DHT22;21661;50.794;-1.066;2024-03-07T05:43:38;6.20;99.90
35559;DHT22;21661;50.794;-1.066;2024-03-07T05:46:03;6.30;99.90
35559;DHT22;21661;50.794;-1.066;2024-03-07T05:48:30;6.20;99.90
35559;DHT22;21661;50.794;-1.066;2024-03-07T05:50:56;6.20;99.90
35559;DHT22;21661;50.794;-1.066;2024-03-07T05:53:21;6.10;99.90
35559;DHT22;21661;50.794;-1.066;2024-03-07T05:55:47;6.20;99.90
35559;DHT22;21661;50.794;-1.066;2024-03-07T05:58:13;6.20;99.90
35559;DHT22;21661;50.794;-1.066;2024-03-07T06:00:39;6.20;99.90
35559;DHT22;21661;50.794;-1.066;2024-03-07T06:03:05;6.10;99.90
35559;DHT22;21661;50.794;-1.066;2024-03-07T06:05:31;6.20;99.90
35559;DHT22;21661;50.794;-1.066;2024-03-07T06:07:56;6.20;99.90
35559;DHT22;21661;50.794;-1.066;2024-03-07T06:10:22;6.20;99.90
35559;DHT22;21661;50.794;-1.066;2024-03-07T06:12:52;6.20;99.90
35559;DHT22;21661;50.794;-1.066;2024-03-07T06:15:18;6.20;99.90
35559;DHT22;21661;50.794;-1.066;2024-03-07T06:17:44;6.10;99.90
35559;DHT22;21661;50.794;-1.066;2024-03-07T06:20:12;6.20;99.90
35559;DHT22;21661;50.794;-1.066;2024-03-07T06:22:48;6.20;99.90
35559;DHT22;21661;50.794;-1.066;2024-03-07T06:25:16;6.10;99.90
35559;DHT22;21661;50.794;-1.066;2024-03-07T06:27:46;6.10;99.90
35559;DHT22;21661;50.794;-1.066;2024-03-07T06:30:15;6.20;99.90
35559;DHT22;21661;50.794;-1.066;2024-03-07T06:32:46;6.00;99.90
35559;DHT22;21661;50.794;-1.066;2024-03-07T06:35:11;6.00;99.90
35559;DHT22;21661;50.794;-1.066;2024-03-07T06:37:37;6.00;99.90
35559;DHT22;21661;50.794;-1.066;2024-03-07T06:40:03;6.00;99.90
35559;DHT22;21661;50.794;-1.066;2024-03-07T06:42:35;6.00;99.90
35559;DHT22;21661;50.794;-1.066;2024-03-07T06:45:03;6.00;99.90
35559;DHT22;21661;50.794;-1.066;2024-03-07T06:47:29;6.00;99.90
35559;DHT22;21661;50.794;-1.066;2024-03-07T06:49:54;5.90;99.90
35559;DHT22;21661;50.794;-1.066;2024-03-07T06:52:21;6.10;99.90
35559;DHT22;21661;50.794;-1.066;2024-03-07T06:54:47;6.00;99.90
35559;DHT22;21661;50.794;-1.066;2024-03-07T06:57:12;5.90;99.90
35559;DHT22;21661;50.794;-1.066;2024-03-07T06:59:38;5.90;99.90
35559;DHT22;21661;50.794;-1.066;2024-03-07T07:02:04;6.00;99.90
35559;DHT22;21661;50.794;-1.066;2024-03-07T07:04:29;6.00;99.90
35559;DHT22;21661;50.794;-1.066;2024-03-07T07:07:07;6.00;99.90
35559;DHT22;21661;50.794;-1.066;2024-03-07T07:09:35;6.00;99.90
35559;DHT22;21661;50.794;-1.066;2024-03-07T07:12:00;6.00;99.90
35559;DHT22;21661;50.794;-1.066;2024-03-07T07:14:29;6.10;99.90
35559;DHT22;21661;50.794;-1.066;2024-03-07T07:16:54;6.10;99.90
35559;DHT22;21661;50.794;-1.066;2024-03-07T07:19:21;6.10;99.90
35559;DHT22;21661;50.794;-1.066;2024-03-07T07:21:47;6.10;99.90
35559;DHT22;21661;50.794;-1.066;2024-03-07T07:24:21;6.10;99.90
35559;DHT22;21661;50.794;-1.066;2024-03-07T07:26:49;6.10;99.90
35559;DHT22;21661;50.794;-1.066;2024-03-07T07:29:15;6.10;99.90
35559;DHT22;21661;50.794;-1.066;2024-03-07T07:31:41;6.10;99.90
35559;DHT22;21661;50.794;-1.066;2024-03-07T07:34:07;6.20;99.90
35559;DHT22;21661;50.794;-1.066;2024-03-07T07:36:32;6.30;99.90
35559;DHT22;21661;50.794;-1.066;2024-03-07T07:38:58;6.20;99.90
35559;DHT22;21661;50.794;-1.066;2024-03-07T07:41:24;6.30;99.90
35559;DHT22;21661;50.794;-1.066;2024-03-07T07:43:49;6.30;99.90
35559;DHT22;21661;50.794;-1.066;2024-03-07T07:46:16;6.30;99.90
35559;DHT22;21661;50.794;-1.066;2024-03-07T07:48:42;6.30;99.90
35559;DHT22;21661;50.794;-1.066;2024-03-07T07:51:08;6.30;99.90
35559;DHT22;21661;50.794;-1.066;2024-03-07T07:53:34;6.30;99.90
35559;DHT22;21661;50.794;-1.066;2024-03-07T07:56:00;6.40;99.90
35559;DHT22;21661;50.794;-1.066;2024-03-07T07:58:25;6.40;99.90
35559;DHT22;21661;50.794;-1.066;2024-03-07T08:00:51;6.40;99.90
35559;DHT22;21661;50.794;-1.066;2024-03-07T08:03:17;6.50;99.90
35559;DHT22;21661;50.794;-1.066;2024-03-07T08:05:43;6.60;99.90
35559;DHT22;21661;50.794;-1.066;2024-03-07T08:08:10;6.60;99.90
35559;DHT22;21661;50.794;-1.066;2024-03-07T08:10:39;6.70;99.90
35559;DHT22;21661;50.794;-1.066;2024-03-07T08:13:06;6.70;99.90
35559;DHT22;21661;50.794;-1.066;2024-03-07T08:15:32;6.80;99.90
35559;DHT22;21661;50.794;-1.066;2024-03-07T08:17:58;6.80;99.90
35559;DHT22;21661;50.794;-1.066;2024-03-07T08:20:25;6.80;99.90
35559;DHT22;21661;50.794;-1.066;2024-03-07T08:22:52;6.80;99.90
35559;DHT22;21661;50.794;-1.066;2024-03-07T08:25:22;6.80;99.90
35559;DHT22;21661;50.794;-1.066;2024-03-07T08:27:52;6.80;99.90
35559;DHT22;21661;50.794;-1.066;2024-03-07T08:30:18;6.90;99.90
35559;DHT22;21661;50.794;-1.066;2024-03-07T08:32:50;6.90;99.90
35559;DHT22;21661;50.794;-1.066;2024-03-07T08:35:17;6.90;99.90
35559;DHT22;21661;50.794;-1.066;2024-03-07T08:37:47;7.00;99.90
35559;DHT22;21661;50.794;-1.066;2024-03-07T08:40:29;6.90;99.90
35559;DHT22;21661;50.794;-1.066;2024-03-07T08:42:58;7.00;99.90
35559;DHT22;21661;50.794;-1.066;2024-03-07T08:45:24;6.90;99.90
35559;DHT22;21661;50.794;-1.066;2024-03-07T08:47:51;7.00;99.90
35559;DHT22;21661;50.794;-1.066;2024-03-07T08:50:17;7.00;99.90
35559;DHT22;21661;50.794;-1.066;2024-03-07T08:52:47;7.10;99.90
35559;DHT22;21661;50.794;-1.066;2024-03-07T08:55:20;7.20;99.90
35559;DHT22;21661;50.794;-1.066;2024-03-07T08:57:46;7.30;99.90
35559;DHT22;21661;50.794;-1.066;2024-03-07T09:00:14;7.30;99.90
35559;DHT22;21661;50.794;-1.066;2024-03-07T09:03:00;7.40;99.90
35559;DHT22;21661;50.794;-1.066;2024-03-07T09:05:29;7.50;99.90
35559;DHT22;21661;50.794;-1.066;2024-03-07T09:07:58;7.60;99.90
35559;DHT22;21661;50.794;-1.066;2024-03-07T09:10:24;7.70;99.90
35559;DHT22;21661;50.794;-1.066;2024-03-07T09:12:51;7.70;99.90
35559;DHT22;21661;50.794;-1.066;2024-03-07T09:15:17;7.80;99.90
35559;DHT22;21661;50.794;-1.066;2024-03-07T09:17:44;7.90;99.90
35559;DHT22;21661;50.794;-1.066;2024-03-07T09:20:12;7.90;99.90
35559;DHT22;21661;50.794;-1.066;2024-03-07T09:22:41;7.90;99.90
35559;DHT22;21661;50.794;-1.066;2024-03-07T09:25:07;8.00;99.90
35559;DHT22;21661;50.794;-1.066;2024-03-07T09:27:33;8.00;99.90
35559;DHT22;21661;50.794;-1.066;2024-03-07T09:29:59;8.10;99.90
35559;DHT22;21661;50.794;-1.066;2024-03-07T09:32:24;8.10;99.90
35559;DHT22;21661;50.794;-1.066;2024-03-07T09:34:50;8.20;99.90
35559;DHT22;21661;50.794;-1.066;2024-03-07T09:37:15;8.20;99.90
35559;DHT22;21661;50.794;-1.066;2024-03-07T09:39:41;8.30;99.90
35559;DHT22;21661;50.794;-1.066;2024-03-07T09:42:08;8.30;99.90
35559;DHT22;21661;50.794;-1.066;2024-03-07T09:44:38;8.40;99.90
35559;DHT22;21661;50.794;-1.066;2024-03-07T09:47:05;8.50;99.90
35559;DHT22;21661;50.794;-1.066;2024-03-07T09:49:32;8.50;99.90
35559;DHT22;21661;50.794;-1.066;2024-03-07T09:52:00;8.50;99.90
35559;DHT22;21661;50.794;-1.066;2024-03-07T09:54:26;8.60;99.90
35559;DHT22;21661;50.794;-1.066;2024-03-07T09:56:59;8.60;99.90
35559;DHT22;21661;50.794;-1.066;2024-03-07T09:59:28;8.60;99.90
35559;DHT22;21661;50.794;-1.066;2024-03-07T10:01:57;8.60;99.90
35559;DHT22;21661;50.794;-1.066;2024-03-07T10:04:38;8.60;99.90
35559;DHT22;21661;50.794;-1.066;2024-03-07T10:07:07;8.70;99.90
35559;DHT22;21661;50.794;-1.066;2024-03-07T10:09:38;8.70;99.90
35559;DHT22;21661;50.794;-1.066;2024-03-07T10:12:06;8.70;99.90
35559;DHT22;21661;50.794;-1.066;2024-03-07T10:14:35;8.70;99.90
35559;DHT22;21661;50.794;-1.066;2024-03-07T10:17:00;8.70;99.90
35559;DHT22;21661;50.794;-1.066;2024-03-07T10:19:28;8.80;99.90
35559;DHT22;21661;50.794;-1.066;2024-03-07T10:21:54;8.90;99.90
35559;DHT22;21661;50.794;-1.066;2024-03-07T10:24:26;8.90;99.90
35559;DHT22;21661;50.794;-1.066;2024-03-07T10:26:53;8.90;99.90
35559;DHT22;21661;50.794;-1.066;2024-03-07T10:29:22;9.00;99.90
35559;DHT22;21661;50.794;-1.066;2024-03-07T10:31:49;9.00;99.90
35559;DHT22;21661;50.794;-1.066;2024-03-07T10:34:15;9.00;99.90
35559;DHT22;21661;50.794;-1.066;2024-03-07T10:36:44;9.00;99.90
35559;DHT22;21661;50.794;-1.066;2024-03-07T10:39:10;9.10;99.90
35559;DHT22;21661;50.794;-1.066;2024-03-07T10:41:45;9.20;99.90
35559;DHT22;21661;50.794;-1.066;2024-03-07T10:44:19;9.20;99.90
35559;DHT22;21661;50.794;-1.066;2024-03-07T10:46:55;9.30;99.90
35559;DHT22;21661;50.794;-1.066;2024-03-07T10:49:21;9.30;99.90
35559;DHT22;21661;50.794;-1.066;2024-03-07T10:52:01;9.30;99.90
35559;DHT22;21661;50.794;-1.066;2024-03-07T10:59:38;9.40;99.90
35559;DHT22;21661;50.794;-1.066;2024-03-07T11:04:58;9.40;99.90
35559;DHT22;21661;50.794;-1.066;2024-03-07T11:07:24;9.40;99.90
35559;DHT22;21661;50.794;-1.066;2024-03-07T11:09:52;9.50;99.90
35559;DHT22;21661;50.794;-1.066;2024-03-07T11:12:24;9.60;99.90
35559;DHT22;21661;50.794;-1.066;2024-03-07T11:14:53;9.60;99.90
35559;DHT22;21661;50.794;-1.066;2024-03-07T11:17:21;9.70;99.90
35559;DHT22;21661;50.794;-1.066;2024-03-07T11:19:47;9.80;99.90
35559;DHT22;21661;50.794;-1.066;2024-03-07T11:22:33;9.90;99.90
35559;DHT22;21661;50.794;-1.066;2024-03-07T11:25:04;9.90;99.90
35559;DHT22;21661;50.794;-1.066;2024-03-07T11:27:37;10.00;99.90
35559;DHT22;21661;50.794;-1.066;2024-03-07T11:30:05;10.00;99.90
35559;DHT22;21661;50.794;-1.066;2024-03-07T11:32:38;10.00;99.90
35559;DHT22;21661;50.794;-1.066;2024-03-07T11:35:04;10.10;99.90
35559;DHT22;21661;50.794;-1.066;2024-03-07T11:37:41;10.10;99.90
35559;DHT22;21661;50.794;-1.066;2024-03-07T11:40:10;10.20;99.90
35559;DHT22;21661;50.794;-1.066;2024-03-07T11:42:45;10.20;99.90
35559;DHT22;21661;50.794;-1.066;2024-03-07T11:45:13;10.20;99.90
35559;DHT22;21661;50.794;-1.066;2024-03-07T11:47:51;10.30;99.90
35559;DHT22;21661;50.794;-1.066;2024-03-07T11:50:17;10.30;99.90
35559;DHT22;21661;50.794;-1.066;2024-03-07T11:52:45;10.40;99.90
35559;DHT22;21661;50.794;-1.066;2024-03-07T11:55:12;10.40;99.90
35559;DHT22;21661;50.794;-1.066;2024-03-07T11:57:38;10.40;99.90
35559;DHT22;21661;50.794;-1.066;2024-03-07T12:00:06;10.40;99.90
35559;DHT22;21661;50.794;-1.066;2024-03-07T12:02:37;10.50;99.90
35559;DHT22;21661;50.794;-1.066;2024-03-07T12:05:06;10.60;99.90
35559;DHT22;21661;50.794;-1.066;2024-03-07T12:07:33;10.60;99.90
35559;DHT22;21661;50.794;-1.066;2024-03-07T12:09:59;10.70;99.90
35559;DHT22;21661;50.794;-1.066;2024-03-07T12:12:29;10.80;99.90
35559;DHT22;21661;50.794;-1.066;2024-03-07T12:14:55;10.90;99.90
35559;DHT22;21661;50.794;-1.066;2024-03-07T12:17:21;11.00;99.90
35559;DHT22;21661;50.794;-1.066;2024-03-07T12:19:48;11.10;99.90
35559;DHT22;21661;50.794;-1.066;2024-03-07T12:22:19;11.20;99.90
35559;DHT22;21661;50.794;-1.066;2024-03-07T12:24:58;11.20;99.90
35559;DHT22;21661;50.794;-1.066;2024-03-07T12:27:24;11.20;99.90
35559;DHT22;21661;50.794;-1.066;2024-03-07T12:29:50;11.30;99.90
35559;DHT22;21661;50.794;-1.066;2024-03-07T12:32:18;11.30;99.90
35559;DHT22;21661;50.794;-1.066;2024-03-07T12:34:43;11.40;99.90
35559;DHT22;21661;50.794;-1.066;2024-03-07T12:37:18;11.50;99.90
35559;DHT22;21661;50.794;-1.066;2024-03-07T12:39:44;11.60;99.90
35559;DHT22;21661;50.794;-1.066;2024-03-07T12:42:15;11.70;99.90
35559;DHT22;21661;50.794;-1.066;2024-03-07T12:44:46;11.60;99.90
35559;DHT22;21661;50.794;-1.066;2024-03-07T12:47:15;11.50;99.90
35559;DHT22;21661;50.794;-1.066;2024-03-07T12:49:42;11.50;99.90
35559;DHT22;21661;50.794;-1.066;2024-03-07T12:52:07;11.50;99.90
35559;DHT22;21661;50.794;-1.066;2024-03-07T12:54:36;11.50;99.90
35559;DHT22;21661;50.794;-1.066;2024-03-07T12:57:11;11.50;99.90
35559;DHT22;21661;50.794;-1.066;2024-03-07T12:59:40;11.60;99.90
35559;DHT22;21661;50.794;-1.066;2024-03-07T13:02:10;11.70;99.90
35559;DHT22;21661;50.794;-1.066;2024-03-07T13:04:36;11.80;99.90
35559;DHT22;21661;50.794;-1.066;2024-03-07T13:07:06;11.70;99.90
35559;DHT22;21661;50.794;-1.066;2024-03-07T13:09:35;11.70;99.90
35559;DHT22;21661;50.794;-1.066;2024-03-07T13:12:01;11.70;99.90
35559;DHT22;21661;50.794;-1.066;2024-03-07T13:14:32;11.80;99.90
35559;DHT22;21661;50.794;-1.066;2024-03-07T13:17:03;11.70;99.90
35559;DHT22;21661;50.794;-1.066;2024-03-07T13:19:30;11.70;99.90
35559;DHT22;21661;50.794;-1.066;2024-03-07T13:21:56;11.60;99.90
35559;DHT22;21661;50.794;-1.066;2024-03-07T13:24:23;11.60;99.90
35559;DHT22;21661;50.794;-1.066;2024-03-07T13:26:49;11.60;99.90
35559;DHT22;21661;50.794;-1.066;2024-03-07T13:29:16;11.60;99.90
35559;DHT22;21661;50.794;-1.066;2024-03-07T13:31:43;11.60;99.90
35559;DHT22;21661;50.794;-1.066;2024-03-07T13:34:10;11.60;99.90
35559;DHT22;21661;50.794;-1.066;2024-03-07T13:36:42;11.60;99.90
35559;DHT22;21661;50.794;-1.066;2024-03-07T13:39:12;11.70;99.90
35559;DHT22;21661;50.794;-1.066;2024-03-07T13:41:39;11.80;99.90
35559;DHT22;21661;50.794;-1.066;2024-03-07T13:44:06;11.90;99.90
35559;DHT22;21661;50.794;-1.066;2024-03-07T13:46:32;11.90;99.90
35559;DHT22;21661;50.794;-1.066;2024-03-07T13:49:02;11.90;99.90
35559;DHT22;21661;50.794;-1.066;2024-03-07T13:51:39;12.00;99.90
35559;DHT22;21661;50.794;-1.066;2024-03-07T13:54:18;12.00;99.90
35559;DHT22;21661;50.794;-1.066;2024-03-07T13:57:28;12.00;99.90
35559;DHT22;21661;50.794;-1.066;2024-03-07T14:08:46;12.10;99.90
35559;DHT22;21661;50.794;-1.066;2024-03-07T14:17:44;12.20;99.90
35559;DHT22;21661;50.794;-1.066;2024-03-07T14:31:37;12.20;99.90
35559;DHT22;21661;50.794;-1.066;2024-03-07T14:34:14;12.10;99.90
35559;DHT22;21661;50.794;-1.066;2024-03-07T14:36:50;12.00;99.90
35559;DHT22;21661;50.794;-1.066;2024-03-07T14:39:20;11.90;99.90
35559;DHT22;21661;50.794;-1.066;2024-03-07T14:42:04;11.90;99.90
35559;DHT22;21661;50.794;-1.066;2024-03-07T14:44:36;11.90;99.90
35559;DHT22;21661;50.794;-1.066;2024-03-07T14:47:04;11.90;99.90
35559;DHT22;21661;50.794;-1.066;2024-03-07T14:49:34;11.90;99.90
35559;DHT22;21661;50.794;-1.066;2024-03-07T14:52:01;12.00;99.90
35559;DHT22;21661;50.794;-1.066;2024-03-07T14:54:28;12.00;99.90
35559;DHT22;21661;50.794;-1.066;2024-03-07T14:56:54;12.00;99.90
35559;DHT22;21661;50.794;-1.066;2024-03-07T14:59:19;12.00;99.90
35559;DHT22;21661;50.794;-1.066;2024-03-07T15:01:46;12.00;99.90
35559;DHT22;21661;50.794;-1.066;2024-03-07T15:04:13;12.00;99.90
35559;DHT22;21661;50.794;-1.066;2024-03-07T15:06:39;12.00;99.90
35559;DHT22;21661;50.794;-1.066;2024-03-07T15:09:06;12.00;99.90
35559;DHT22;21661;50.794;-1.066;2024-03-07T15:11:38;11.90;99.90
35559;DHT22;21661;50.794;-1.066;2024-03-07T15:14:08;11.90;99.90
35559;DHT22;21661;50.794;-1.066;2024-03-07T15:16:38;11.90;99.90
35559;DHT22;21661;50.794;-1.066;2024-03-07T15:19:05;12.00;99.90
35559;DHT22;21661;50.794;-1.066;2024-03-07T15:21:31;12.00;99.90
35559;DHT22;21661;50.794;-1.066;2024-03-07T15:23:58;11.90;99.90
35559;DHT22;21661;50.794;-1.066;2024-03-07T15:26:24;11.90;99.90
35559;DHT22;21661;50.794;-1.066;2024-03-07T15:28:51;11.90;99.90
35559;DHT22;21661;50.794;-1.066;2024-03-07T15:31:16;12.00;99.90
35559;DHT22;21661;50.794;-1.066;2024-03-07T15:33:47;12.10;99.90
35559;DHT22;21661;50.794;-1.066;2024-03-07T15:36:15;12.20;99.90
35559;DHT22;21661;50.794;-1.066;2024-03-07T15:38:41;12.20;99.90
35559;DHT22;21661;50.794;-1.066;2024-03-07T15:41:07;12.30;99.90
35559;DHT22;21661;50.794;-1.066;2024-03-07T15:43:38;12.30;99.90
35559;DHT22;21661;50.794;-1.066;2024-03-07T15:46:04;12.30;99.90
35559;DHT22;21661;50.794;-1.066;2024-03-07T15:48:32;12.30;99.90
35559;DHT22;21661;50.794;-1.066;2024-03-07T15:50:58;12.20;99.90
35559;DHT22;21661;50.794;-1.066;2024-03-07T15:53:25;12.20;99.90
35559;DHT22;21661;50.794;-1.066;2024-03-07T15:55:50;12.20;99.90
35559;DHT22;21661;50.794;-1.066;2024-03-07T15:58:16;12.10;99.90
35559;DHT22;21661;50.794;-1.066;2024-03-07T16:00:45;12.10;99.90
35559;DHT22;21661;50.794;-1.066;2024-03-07T16:03:14;12.00;99.90
35559;DHT22;21661;50.794;-1.066;2024-03-07T16:05:42;11.90;99.90
35559;DHT22;21661;50.794;-1.066;2024-03-07T16:08:10;11.90;99.90